createdAt,value
2022-12-03T00:03:11.452Z,8.73
2022-12-03T00:08:14.456Z,8.02
2022-12-03T00:13:17.162Z,7.93
2022-12-03T00:18:21.796Z,8.45
2022-12-03T00:23:25.078Z,8.02
2022-12-03T00:28:28.299Z,8.00
2022-12-03T00:33:32.413Z,7.68
2022-12-03T00:38:35.133Z,7.47
2022-12-03T00:43:37.842Z,7.18
2022-12-03T00:48:41.911Z,7.50
2022-12-03T00:53:44.590Z,6.78
2022-12-03T00:58:47.278Z,6.22
2022-12-03T01:03:51.455Z,6.60
2022-12-03T01:08:54.177Z,6.57
2022-12-03T01:13:56.954Z,6.03
2022-12-03T01:19:01.105Z,5.78
2022-12-03T01:24:04.252Z,5.68
2022-12-03T01:29:07.273Z,5.70
2022-12-03T01:34:11.319Z,5.53
2022-12-03T01:39:14.027Z,5.88
2022-12-03T01:44:18.479Z,5.45
2022-12-03T01:49:25.408Z,5.65
2022-12-03T01:54:32.156Z,5.55
2022-12-03T01:59:37.339Z,5.00
2022-12-03T02:04:41.405Z,4.72
2022-12-03T02:09:44.111Z,5.35
2022-12-03T02:14:47.212Z,4.53
2022-12-03T02:19:51.413Z,5.07
2022-12-03T02:24:57.330Z,5.43
2022-12-03T02:30:01.534Z,4.72
2022-12-03T02:35:04.582Z,4.80
2022-12-03T02:40:10.715Z,4.75
2022-12-03T02:45:16.927Z,4.65
2022-12-03T02:50:22.029Z,4.35
2022-12-03T02:55:25.493Z,4.50
2022-12-03T03:00:29.844Z,4.63
2022-12-03T03:05:33.697Z,4.88
2022-12-03T03:10:37.546Z,4.60
2022-12-03T03:15:42.477Z,3.97
2022-12-03T03:20:45.825Z,4.03
2022-12-03T03:25:50.503Z,4.70
2022-12-03T03:30:55.843Z,4.20
2022-12-03T03:36:00.353Z,4.07
2022-12-03T03:41:04.829Z,4.05
2022-12-03T03:46:09.526Z,4.28
2022-12-03T03:51:13.374Z,4.20
2022-12-03T03:56:17.412Z,4.32
2022-12-03T04:01:21.531Z,4.45
2022-12-03T04:06:24.217Z,4.65
2022-12-03T04:11:44.656Z,4.00
2022-12-03T04:16:48.832Z,4.57
2022-12-03T04:22:09.211Z,4.90
2022-12-03T04:27:29.402Z,3.83
2022-12-03T04:33:02.582Z,4.88
2022-12-03T04:38:05.317Z,5.05
2022-12-03T04:43:08.005Z,4.47
2022-12-03T04:48:12.031Z,4.47
2022-12-03T04:53:14.836Z,4.65
2022-12-03T04:58:17.578Z,5.07
2022-12-03T05:03:21.609Z,4.63
2022-12-03T05:08:24.411Z,4.68
2022-12-03T05:13:31.748Z,4.65
2022-12-03T05:18:35.817Z,4.57
2022-12-03T05:23:38.506Z,4.55
2022-12-03T05:28:41.255Z,5.13
2022-12-03T05:33:45.542Z,4.47
2022-12-03T05:38:48.289Z,4.50
2022-12-03T05:43:50.999Z,4.50
2022-12-03T05:48:55.053Z,5.18
2022-12-03T05:53:57.753Z,4.55
2022-12-03T05:59:00.474Z,5.25
2022-12-03T06:04:04.714Z,4.40
2022-12-03T06:09:07.445Z,4.75
2022-12-03T06:14:10.328Z,4.95
2022-12-03T06:19:14.371Z,4.97
2022-12-03T06:24:17.101Z,4.15
2022-12-03T06:29:19.781Z,4.78
2022-12-03T06:34:23.830Z,4.70
2022-12-03T06:39:26.567Z,5.22
2022-12-03T06:44:29.270Z,4.50
2022-12-03T06:49:33.306Z,4.47
2022-12-03T06:54:36.041Z,4.47
2022-12-03T06:59:38.795Z,4.65
2022-12-03T07:04:46.293Z,4.75
2022-12-03T07:09:49.246Z,4.75
2022-12-03T07:14:52.412Z,4.57
2022-12-03T07:19:56.610Z,4.82
2022-12-03T07:24:59.266Z,4.80
2022-12-03T07:30:02.136Z,5.00
2022-12-03T07:35:07.449Z,5.00
2022-12-03T07:40:11.374Z,5.57
2022-12-03T07:45:14.018Z,4.65
2022-12-03T07:50:18.109Z,5.53
2022-12-03T07:55:21.253Z,5.28
2022-12-03T08:00:24.809Z,5.72
2022-12-03T08:05:29.553Z,5.60
2022-12-03T08:10:32.416Z,5.50
2022-12-03T08:15:39.319Z,5.65
2022-12-03T08:20:44.784Z,5.50
2022-12-03T08:25:47.774Z,6.03
2022-12-03T08:31:00.329Z,5.93
2022-12-03T08:36:12.227Z,5.90
2022-12-03T08:41:37.397Z,5.55
2022-12-03T08:46:40.167Z,5.47
2022-12-03T08:51:44.251Z,5.40
2022-12-03T08:56:46.937Z,5.72
2022-12-03T09:01:50.103Z,5.80
2022-12-03T09:06:54.749Z,5.68
2022-12-03T09:11:57.710Z,5.82
2022-12-03T09:17:00.538Z,5.53
2022-12-03T09:22:04.689Z,5.60
2022-12-03T09:27:07.351Z,5.10
2022-12-03T09:32:15.132Z,5.50
2022-12-03T09:37:22.289Z,4.65
2022-12-03T09:42:25.899Z,4.57
2022-12-03T09:47:29.340Z,5.10
2022-12-03T09:52:34.602Z,5.45
2022-12-03T09:57:37.538Z,5.20
2022-12-03T10:02:40.209Z,5.45
2022-12-03T10:07:44.277Z,4.93
2022-12-03T10:12:47.198Z,4.82
2022-12-03T10:17:51.881Z,5.28
2022-12-03T10:22:55.898Z,5.05
2022-12-03T10:28:00.499Z,5.40
2022-12-03T10:33:17.359Z,5.20
2022-12-03T10:38:23.615Z,5.38
2022-12-03T10:43:26.772Z,4.88
2022-12-03T10:48:29.466Z,4.68
2022-12-03T10:53:35.523Z,4.80
2022-12-03T10:58:39.513Z,5.35
2022-12-03T11:03:42.398Z,4.97
2022-12-03T11:08:52.972Z,4.93
2022-12-03T11:14:00.124Z,4.20
2022-12-03T11:19:03.519Z,4.60
2022-12-03T11:24:28.318Z,4.32
2022-12-03T11:29:59.777Z,4.53
2022-12-03T11:35:02.585Z,4.00
2022-12-03T11:40:27.845Z,4.45
2022-12-03T11:45:33.051Z,4.45
2022-12-03T11:50:40.294Z,4.28
2022-12-03T11:55:48.572Z,4.22
2022-12-03T12:01:08.012Z,4.32
2022-12-03T12:06:12.120Z,4.60
2022-12-03T12:11:20.115Z,5.47
2022-12-03T12:16:42.346Z,6.00
2022-12-03T12:21:47.725Z,6.05
2022-12-03T12:26:52.693Z,6.28
2022-12-03T12:32:00.246Z,6.13
2022-12-03T12:37:03.975Z,6.03
2022-12-03T12:42:27.807Z,5.57
2022-12-03T12:47:32.074Z,5.65
2022-12-03T12:52:34.842Z,5.18
2022-12-03T12:57:38.865Z,6.32
2022-12-03T13:02:45.277Z,5.15
2022-12-03T13:07:48.214Z,5.65
2022-12-03T13:12:52.390Z,5.68
2022-12-03T13:17:55.200Z,5.30
2022-12-03T13:22:58.434Z,5.88
2022-12-03T13:28:02.499Z,5.35
2022-12-03T13:33:11.579Z,5.63
2022-12-03T13:38:17.009Z,5.63
2022-12-03T13:43:21.031Z,5.68
2022-12-03T13:48:25.540Z,6.30
2022-12-03T13:53:30.663Z,6.18
2022-12-03T13:58:34.660Z,5.55
2022-12-03T14:03:37.394Z,6.03
2022-12-03T14:08:40.108Z,5.72
2022-12-03T14:13:44.136Z,6.47
2022-12-03T14:18:46.844Z,6.82
2022-12-03T14:23:49.567Z,6.70
2022-12-03T14:28:53.572Z,6.97
2022-12-03T14:33:56.266Z,7.22
2022-12-03T14:38:58.908Z,6.78
2022-12-03T14:44:02.942Z,7.03
2022-12-03T14:49:05.663Z,6.78
2022-12-03T14:54:08.325Z,7.93
2022-12-03T14:59:12.361Z,7.28
2022-12-03T15:04:15.064Z,6.20
2022-12-03T15:09:18.338Z,7.20
2022-12-03T15:14:22.378Z,7.38
2022-12-03T15:19:25.052Z,7.55
2022-12-03T15:24:27.681Z,6.25
2022-12-03T15:29:32.833Z,6.82
2022-12-03T15:34:35.534Z,7.45
2022-12-03T15:39:40.361Z,7.30
2022-12-03T15:44:49.056Z,7.13
2022-12-03T15:49:52.000Z,7.00
2022-12-03T15:54:55.163Z,7.60
2022-12-03T16:00:00.116Z,7.32
2022-12-03T16:05:03.133Z,7.40
2022-12-03T16:10:06.845Z,7.72
2022-12-03T16:15:11.438Z,7.88
2022-12-03T16:20:14.120Z,7.57
2022-12-03T16:25:16.899Z,8.00
2022-12-03T16:30:21.195Z,7.53
2022-12-03T16:35:23.919Z,7.55
2022-12-03T16:40:26.791Z,7.00
2022-12-03T16:45:48.187Z,7.75
2022-12-03T16:50:50.914Z,6.78
2022-12-03T16:55:53.584Z,7.80
2022-12-03T17:00:57.557Z,7.10
2022-12-03T17:06:00.271Z,6.88
2022-12-03T17:11:02.951Z,7.55
2022-12-03T17:16:07.778Z,7.15
2022-12-03T17:21:10.456Z,7.03
2022-12-03T17:26:13.075Z,6.82
2022-12-03T17:31:17.218Z,7.13
2022-12-03T17:36:19.963Z,7.28
2022-12-03T17:41:23.948Z,6.93
2022-12-03T17:46:28.025Z,6.90
2022-12-03T17:51:30.695Z,7.32
2022-12-03T17:56:33.603Z,7.72
2022-12-03T18:01:37.679Z,6.68
2022-12-03T18:06:40.628Z,7.72
2022-12-03T18:11:43.312Z,6.45
2022-12-03T18:16:47.352Z,6.70
2022-12-03T18:21:50.039Z,6.40
2022-12-03T18:26:52.798Z,6.78
2022-12-03T18:31:56.950Z,7.30
2022-12-03T18:36:59.752Z,6.90
2022-12-03T18:42:02.602Z,6.93
2022-12-03T18:47:11.668Z,7.18
2022-12-03T18:52:14.944Z,6.78
2022-12-03T18:57:17.849Z,6.68
2022-12-03T19:07:45.094Z,6.80
2022-12-03T19:12:47.894Z,6.60
2022-12-03T19:17:52.057Z,6.60
2022-12-03T19:22:54.799Z,6.43
2022-12-03T19:27:57.505Z,6.78
2022-12-03T19:33:01.493Z,5.97
2022-12-03T19:38:04.161Z,5.97
2022-12-03T19:43:06.880Z,6.38
2022-12-03T19:48:10.906Z,6.18
2022-12-03T19:53:13.622Z,6.20
2022-12-03T19:58:16.321Z,6.15
2022-12-03T20:03:20.361Z,6.28
2022-12-03T20:08:23.140Z,6.70
2022-12-03T20:13:25.921Z,5.70
2022-12-03T20:18:29.926Z,6.65
2022-12-03T20:23:32.597Z,6.10
2022-12-03T20:28:35.305Z,8.63
2022-12-03T20:33:39.608Z,10.13
2022-12-03T20:38:42.377Z,9.88
2022-12-03T20:43:45.100Z,8.80
2022-12-03T20:48:49.127Z,9.13
2022-12-03T20:53:52.204Z,8.77
2022-12-03T20:58:54.926Z,9.07
2022-12-03T21:03:59.336Z,8.60
2022-12-03T21:09:02.320Z,8.63
2022-12-03T21:14:05.518Z,8.52
2022-12-03T21:19:10.461Z,8.43
2022-12-03T21:24:14.268Z,8.65
2022-12-03T21:29:17.085Z,7.88
2022-12-03T21:34:21.136Z,7.93
2022-12-03T21:39:23.821Z,7.22
2022-12-03T21:44:26.518Z,7.70
2022-12-03T21:49:30.537Z,7.28
2022-12-03T21:54:33.188Z,7.40
2022-12-03T21:59:35.872Z,7.05
2022-12-03T22:04:39.949Z,7.32
2022-12-03T22:09:42.738Z,7.00
2022-12-03T22:14:45.393Z,6.97
2022-12-03T22:19:49.400Z,6.80
2022-12-03T22:24:52.271Z,6.47
2022-12-03T22:29:55.305Z,6.47
2022-12-03T22:34:59.694Z,6.75
2022-12-03T22:40:02.427Z,6.25
2022-12-03T22:45:05.917Z,6.72
2022-12-03T22:50:10.759Z,5.97
2022-12-03T22:55:13.469Z,6.47
2022-12-03T23:00:27.853Z,6.80
2022-12-03T23:05:36.805Z,6.28
2022-12-03T23:10:43.440Z,5.93
2022-12-03T23:15:47.123Z,6.15
2022-12-03T23:20:53.449Z,6.38
2022-12-03T23:25:59.949Z,5.78
2022-12-03T23:31:02.915Z,6.30
2022-12-03T23:36:08.256Z,5.90
2022-12-03T23:41:12.218Z,6.93
2022-12-03T23:46:16.090Z,5.93
2022-12-03T23:51:22.426Z,6.50
2022-12-03T23:56:27.225Z,6.47
